PDT,Max TemperatureF,Mean TemperatureF,Min TemperatureF,Max Dew PointF,MeanDew PointF,Min DewpointF,Max Humidity, Mean Humidity, Min Humidity, Max Sea Level PressureIn, Mean Sea Level PressureIn, Min Sea Level PressureIn, Max VisibilityMiles, Mean VisibilityMiles, Min VisibilityMiles, Max Wind SpeedMPH, Mean Wind SpeedMPH, Max Gust SpeedMPH,PrecipitationIn, CloudCover, Events, WindDirDegrees
2013-7-1,93,79,65,64,63,58,93,64,34,29.90,29.85,29.81,10,10,8,13,5,,0.00,3,,170
2013-7-2,76,71,66,64,63,61,87,74,60,30.01,29.93,29.88,10,8,2,13,5,21,0.00,2,,185
2013-7-3,82,74,66,63,61,59,87,69,51,29.94,29.87,29.81,10,8,4,13,6,21,0.00,4,,281
2013-7-4,82,74,65,61,60,59,81,65,49,29.84,29.81,29.75,10,9,6,10,4,,0.00,3,,187
2013-7-5,79,72,65,61,60,59,84,72,60,29.84,29.81,29.77,10,10,10,13,5,17,0.00,5,,170
2013-7-6,80,72,64,61,60,59,87,71,54,29.84,29.80,29.75,10,10,10,12,5,,0.00,5,,227
2013-7-7,82,74,66,63,60,58,81,65,49,29.87,29.81,29.78,10,9,5,14,6,18,0.00,4,,276
2013-7-8,87,76,64,62,58,55,84,61,37,29.92,29.89,29.86,10,10,8,15,5,23,0.00,0,,291
2013-7-9,78,72,65,62,60,56,87,71,54,30.01,29.95,29.90,10,10,9,14,5,17,0.00,0,,206
2013-7-10,76,72,67,63,62,61,81,73,64,29.98,29.94,29.91,10,10,8,10,3,,T,2,Rain,158
2013-7-11,72,70,68,64,63,62,84,79,73,29.97,29.93,29.89,10,10,8,9,4,14,0.03,5,Rain,177
2013-7-12,84,74,63,63,61,58,84,66,48,29.93,29.91,29.85,10,10,8,14,4,,0.00,3,,248
2013-7-13,85,74,63,61,59,57,87,65,43,29.96,29.92,29.86,10,8,6,13,5,39,0.00,3,,282
2013-7-14,84,75,65,62,60,57,87,65,43,29.94,29.88,29.82,10,9,6,10,4,40,0.00,3,,196
2013-7-15,87,77,66,63,59,51,81,59,37,29.88,29.85,29.81,10,9,7,15,6,20,0.00,1,,255
2013-7-16,85,74,62,59,55,48,84,59,33,29.98,29.91,29.86,10,10,10,14,5,,0.00,0,,278
2013-7-17,88,76,63,58,55,51,84,57,30,30.01,29.98,29.95,10,10,10,17,6,22,0.00,0,,295
2013-7-18,83,73,63,58,57,55,84,65,45,29.99,29.93,29.86,10,10,10,13,5,15,0.00,0,,305
2013-7-19,77,71,64,60,59,58,84,71,58,29.91,29.88,29.83,10,9,7,12,5,17,0.00,2,,186
2013-7-20,72,69,65,61,60,59,81,75,68,29.88,29.85,29.80,10,9,7,12,4,14,T,5,Rain,180
2013-7-21,71,69,66,61,60,59,81,77,73,29.93,29.87,29.81,10,10,10,9,3,13,T,5,,182
2013-7-22,82,74,66,62,60,59,81,66,51,29.98,29.94,29.91,10,10,9,12,5,22,T,1,,220
2013-7-23,83,74,65,61,60,58,81,62,43,30.03,29.98,29.93,10,9,6,16,7,21,0.00,1,,301
2013-7-24,80,72,64,61,59,57,87,70,52,29.98,29.95,29.90,10,9,2,13,6,17,0.00,4,,307
2013-7-25,80,72,63,59,58,57,84,68,52,30.02,29.96,29.93,10,9,6,14,6,17,0.00,3,,282
2013-7-26,84,75,65,61,60,55,81,64,47,30.09,30.03,29.98,10,10,6,14,5,17,0.04,2,Rain,284
2013-7-27,81,73,64,59,58,55,84,68,52,30.01,29.95,29.88,10,10,10,12,5,15,0.00,2,,269
2013-7-28,74,68,62,59,57,55,90,74,57,29.94,29.91,29.88,10,10,7,12,5,15,0.00,5,,201
2013-7-29,78,71,63,57,55,54,73,60,47,30.04,29.97,29.92,10,10,10,13,6,,0.00,3,,257
2013-7-30,78,71,63,56,55,54,78,64,50,30.12,30.08,30.03,10,10,9,15,6,18,0.00,2,,296
2013-7-31,76,70,63,56,55,54,78,64,50,30.11,30.06,30.00,10,9,6,13,6,17,0.00,5,,288